Time;durP1;ratioP1;P1;durP2;ratioP2;P2;SDS_P1;SDS_P2;PMS_P1;PMS_P2;Temp;Humidity;BMP_temperature;BMP_pressure;BME280_temperature;BME280_humidity;BME280_pressure;Samples;Min_cycle;Max_cycle;Signal;HPM_P1;HPM_P2
2021/10/06 00:01:06;;;;;;;4.40;4.03;;;14.80;99.90;;;;;;5049214;28;20484;-66
2021/10/06 00:03:32;;;;;;;5.70;4.30;;;14.70;99.90;;;;;;5034608;28;20205;-66
2021/10/06 00:05:57;;;;;;;4.80;4.33;;;14.80;99.90;;;;;;5034216;28;20450;-67
2021/10/06 00:08:23;;;;;;;6.63;4.37;;;14.80;99.90;;;;;;5035661;28;20636;-66
2021/10/06 00:10:49;;;;;;;4.47;4.17;;;14.70;99.90;;;;;;5016136;28;20213;-67
2021/10/06 00:13:15;;;;;;;5.50;4.30;;;14.80;99.90;;;;;;5034461;28;20264;-66
2021/10/06 00:15:42;;;;;;;4.80;4.40;;;14.70;99.90;;;;;;5034797;28;20425;-66
2021/10/06 00:18:07;;;;;;;6.07;4.90;;;14.60;99.90;;;;;;5053732;28;20598;-67
2021/10/06 00:20:34;;;;;;;7.10;4.73;;;14.70;99.90;;;;;;5054286;28;20437;-67
2021/10/06 00:22:59;;;;;;;5.63;5.13;;;14.60;99.90;;;;;;5053517;28;20207;-68
2021/10/06 00:25:25;;;;;;;6.20;5.70;;;14.60;99.90;;;;;;5053855;28;20406;-66
2021/10/06 00:27:51;;;;;;;7.97;6.00;;;14.60;99.90;;;;;;5053495;28;20606;-67
2021/10/06 00:30:17;;;;;;;6.13;5.60;;;14.70;99.90;;;;;;5053697;28;20234;-66
2021/10/06 00:32:43;;;;;;;6.13;5.70;;;14.60;99.90;;;;;;5036183;28;20179;-66
2021/10/06 00:35:09;;;;;;;6.53;6.03;;;14.70;99.90;;;;;;5033014;28;20460;-67
2021/10/06 00:37:35;;;;;;;5.63;5.23;;;14.70;99.90;;;;;;5034007;28;20450;-67
2021/10/06 00:40:02;;;;;;;6.10;5.70;;;14.70;99.90;;;;;;5015636;28;20457;-67
2021/10/06 00:42:28;;;;;;;6.90;5.77;;;14.70;99.90;;;;;;5034070;28;20223;-66
2021/10/06 00:44:53;;;;;;;6.07;5.57;;;14.70;99.90;;;;;;5033208;28;20449;-67
2021/10/06 00:47:19;;;;;;;6.00;5.60;;;14.70;99.90;;;;;;5033819;28;20603;-66
2021/10/06 00:49:45;;;;;;;5.23;4.83;;;14.70;99.90;;;;;;5033477;28;20202;-66
2021/10/06 00:52:14;;;;;;;5.40;4.90;;;14.60;99.90;;;;;;5033687;28;20569;-67
2021/10/06 00:54:40;;;;;;;4.97;4.50;;;14.60;99.90;;;;;;5051562;28;20581;-66
2021/10/06 00:57:06;;;;;;;4.87;4.47;;;14.70;99.90;;;;;;5052940;28;20624;-67
2021/10/06 00:59:32;;;;;;;5.10;4.60;;;14.60;99.90;;;;;;5053462;28;20418;-66
2021/10/06 01:01:58;;;;;;;4.83;4.50;;;14.60;99.90;;;;;;5052746;28;20454;-67
2021/10/06 01:04:24;;;;;;;3.83;3.57;;;14.60;99.90;;;;;;5053513;28;20412;-66
2021/10/06 01:06:50;;;;;;;4.00;3.80;;;14.50;99.90;;;;;;5034312;28;20187;-67
2021/10/06 01:09:16;;;;;;;4.67;4.10;;;14.50;99.90;;;;;;5033422;28;20412;-66
2021/10/06 01:11:42;;;;;;;3.90;2.93;;;14.50;99.90;;;;;;5033343;28;20210;-66
2021/10/06 01:14:08;;;;;;;3.63;3.30;;;14.40;99.90;;;;;;5032649;28;20402;-66
2021/10/06 01:16:34;;;;;;;4.77;3.97;;;14.40;99.90;;;;;;5034348;28;20630;-67
2021/10/06 01:19:00;;;;;;;3.70;3.43;;;14.30;99.90;;;;;;5052536;28;20412;-67
2021/10/06 01:21:26;;;;;;;3.97;3.57;;;14.30;99.90;;;;;;5049988;28;20500;-66
2021/10/06 01:23:54;;;;;;;3.73;3.30;;;14.30;99.90;;;;;;5032501;28;20515;-66
2021/10/06 01:26:20;;;;;;;4.13;3.70;;;14.30;99.90;;;;;;5033083;28;20286;-66
2021/10/06 01:28:54;;;;;;;4.27;3.80;;;14.40;99.90;;;;;;5038469;28;20413;-66
2021/10/06 01:31:27;;;;;;;5.33;5.03;;;14.30;99.90;;;;;;5053118;28;20400;-66
2021/10/06 01:33:52;;;;;;;4.03;3.70;;;14.20;99.90;;;;;;5051929;28;20546;-67
2021/10/06 01:36:18;;;;;;;3.90;3.70;;;14.20;99.90;;;;;;5034589;28;20578;-67
2021/10/06 01:38:44;;;;;;;5.70;4.17;;;14.20;99.90;;;;;;5052750;28;20182;-66
2021/10/06 01:41:10;;;;;;;4.53;3.80;;;14.20;99.90;;;;;;5052089;28;20648;-66
2021/10/06 01:43:35;;;;;;;4.10;3.70;;;14.10;99.90;;;;;;5052056;28;20185;-66
2021/10/06 01:46:01;;;;;;;6.97;3.70;;;14.10;99.90;;;;;;5045148;28;20223;-66
2021/10/06 01:48:28;;;;;;;4.23;3.83;;;14.10;99.90;;;;;;5032850;28;20188;-66
2021/10/06 01:50:54;;;;;;;3.50;3.20;;;14.00;99.90;;;;;;5032081;28;20421;-67
2021/10/06 01:53:20;;;;;;;4.10;3.70;;;14.10;99.90;;;;;;5032825;28;20427;-66
2021/10/06 01:55:46;;;;;;;5.73;4.30;;;14.00;99.90;;;;;;5032702;28;20584;-66
2021/10/06 01:58:15;;;;;;;4.73;4.43;;;14.00;99.90;;;;;;5039774;28;20416;-67
2021/10/06 02:00:48;;;;;;;4.20;3.80;;;13.90;99.90;;;;;;5052493;28;20980;-66
2021/10/06 02:03:14;;;;;;;4.93;3.73;;;13.90;99.90;;;;;;5051898;28;20491;-67
2021/10/06 02:05:40;;;;;;;5.40;4.13;;;13.90;99.90;;;;;;5040954;28;20507;-67
2021/10/06 02:08:06;;;;;;;3.60;3.30;;;13.90;99.90;;;;;;5032045;28;20630;-67
2021/10/06 02:10:33;;;;;;;3.63;3.30;;;13.90;99.90;;;;;;5032493;28;20396;-66
2021/10/06 02:12:59;;;;;;;4.17;3.63;;;14.00;99.90;;;;;;5032238;28;20424;-67
2021/10/06 02:15:25;;;;;;;3.07;2.87;;;13.90;99.90;;;;;;5040998;28;20429;-66
2021/10/06 02:17:51;;;;;;;3.97;3.67;;;13.90;99.90;;;;;;5051988;28;20415;-74
2021/10/06 02:20:18;;;;;;;4.87;3.50;;;13.80;99.90;;;;;;5052346;28;20902;-66
2021/10/06 02:22:44;;;;;;;4.57;3.80;;;13.80;99.90;;;;;;5052206;28;20947;-66
2021/10/06 02:25:10;;;;;;;3.93;3.63;;;13.80;99.90;;;;;;5051979;28;20481;-66
2021/10/06 02:27:36;;;;;;;4.00;3.57;;;13.80;99.90;;;;;;5043799;28;20494;-66
2021/10/06 02:30:04;;;;;;;6.77;4.90;;;13.80;99.90;;;;;;5031790;28;20447;-66
2021/10/06 02:32:30;;;;;;;4.17;3.90;;;13.90;99.90;;;;;;5032385;28;20802;-66
2021/10/06 02:34:56;;;;;;;4.47;3.70;;;13.90;99.90;;;;;;5041088;28;20455;-67
2021/10/06 02:37:22;;;;;;;5.13;3.80;;;13.90;99.90;;;;;;5052314;28;20192;-66
2021/10/06 02:39:47;;;;;;;6.00;4.40;;;13.80;99.90;;;;;;5052143;28;20181;-66
2021/10/06 02:42:13;;;;;;;4.73;4.00;;;13.80;99.90;;;;;;5051193;28;20201;-66
2021/10/06 02:44:39;;;;;;;4.67;4.37;;;13.90;99.90;;;;;;5044782;28;20273;-67
2021/10/06 02:47:05;;;;;;;4.73;4.37;;;13.80;99.90;;;;;;5031584;28;20184;-66
2021/10/06 02:49:31;;;;;;;4.50;4.20;;;13.80;99.90;;;;;;5032096;28;20177;-66
2021/10/06 02:51:57;;;;;;;6.10;4.07;;;13.90;99.90;;;;;;5031529;28;20943;-67
2021/10/06 02:54:23;;;;;;;4.13;3.73;;;13.90;99.90;;;;;;5034416;28;20417;-66
2021/10/06 02:56:49;;;;;;;6.97;4.27;;;13.90;99.90;;;;;;5035910;28;20465;-66
2021/10/06 02:59:15;;;;;;;4.33;4.03;;;13.90;99.90;;;;;;5035238;28;20182;-67
2021/10/06 03:01:41;;;;;;;5.03;3.90;;;13.90;99.90;;;;;;5040966;28;20458;-67
2021/10/06 03:04:06;;;;;;;5.20;3.93;;;13.90;99.90;;;;;;5054911;28;20181;-67
2021/10/06 03:06:32;;;;;;;4.03;3.60;;;13.90;99.90;;;;;;5055552;28;20606;-67
2021/10/06 03:08:58;;;;;;;4.70;3.60;;;13.80;99.90;;;;;;5054685;28;20257;-67
2021/10/06 03:11:24;;;;;;;5.20;4.10;;;13.90;99.90;;;;;;5052279;28;20562;-67
2021/10/06 03:13:49;;;;;;;5.37;3.77;;;13.90;99.90;;;;;;5035563;28;20194;-67
2021/10/06 03:16:15;;;;;;;4.00;3.70;;;14.00;99.90;;;;;;5034636;28;20173;-67
2021/10/06 03:18:41;;;;;;;4.00;3.70;;;14.00;99.90;;;;;;5035461;28;20214;-67
2021/10/06 03:21:07;;;;;;;3.53;3.27;;;14.10;99.90;;;;;;5034746;28;20912;-67
2021/10/06 03:23:32;;;;;;;4.10;3.83;;;13.90;99.90;;;;;;5040625;28;20186;-67
2021/10/06 03:25:58;;;;;;;3.73;3.43;;;13.80;99.90;;;;;;5054494;28;20166;-67
2021/10/06 03:28:24;;;;;;;4.70;3.90;;;13.80;99.90;;;;;;5055342;28;20181;-67
2021/10/06 03:30:49;;;;;;;5.27;4.50;;;13.90;99.90;;;;;;5029804;28;20181;-67
2021/10/06 03:33:15;;;;;;;3.93;3.63;;;13.80;99.90;;;;;;5034600;28;20181;-67
2021/10/06 03:35:41;;;;;;;4.50;4.10;;;13.90;99.90;;;;;;5035242;28;20308;-67
2021/10/06 03:38:07;;;;;;;3.90;3.60;;;13.80;99.90;;;;;;5034523;28;20262;-67
2021/10/06 03:40:33;;;;;;;3.97;3.77;;;13.90;99.90;;;;;;5039420;28;20279;-67
2021/10/06 03:42:58;;;;;;;4.70;3.33;;;13.90;99.90;;;;;;5054531;28;20541;-67
2021/10/06 03:45:24;;;;;;;6.70;6.10;;;13.90;99.90;;;;;;5037128;28;20203;-67
2021/10/06 03:47:49;;;;;;;6.37;4.33;;;13.90;99.90;;;;;;5055117;28;20172;-67
2021/10/06 03:50:18;;;;;;;4.80;2.77;;;13.80;99.90;;;;;;5054316;28;20544;-67
2021/10/06 03:52:44;;;;;;;5.30;4.90;;;13.80;99.90;;;;;;5054229;28;20204;-67
2021/10/06 03:55:11;;;;;;;4.00;3.67;;;13.80;99.90;;;;;;5054136;28;20402;-67
2021/10/06 03:57:37;;;;;;;4.23;3.70;;;13.90;99.90;;;;;;5054698;28;20906;-67
2021/10/06 04:00:05;;;;;;;5.63;5.20;;;13.80;99.90;;;;;;5049048;28;20407;-67
2021/10/06 04:02:30;;;;;;;9.60;3.47;;;13.80;99.90;;;;;;5034540;28;20459;-67
2021/10/06 04:04:56;;;;;;;5.07;3.90;;;13.80;99.90;;;;;;5033912;28;21014;-67
2021/10/06 04:07:22;;;;;;;7.17;6.57;;;13.70;99.90;;;;;;5035677;28;20218;-66
2021/10/06 04:09:48;;;;;;;3.83;3.53;;;13.80;99.90;;;;;;5034506;28;20415;-67
2021/10/06 04:12:14;;;;;;;6.63;3.73;;;13.80;99.90;;;;;;5033910;28;20674;-67
2021/10/06 04:14:39;;;;;;;4.17;3.80;;;13.80;99.90;;;;;;5034206;28;20541;-67
2021/10/06 04:17:05;;;;;;;8.00;4.90;;;13.80;99.90;;;;;;5034040;28;20184;-67
2021/10/06 04:19:31;;;;;;;5.57;3.30;;;13.60;99.90;;;;;;5034392;28;20173;-67
2021/10/06 04:21:57;;;;;;;4.33;3.93;;;13.60;99.90;;;;;;5034383;28;20205;-67
2021/10/06 04:24:22;;;;;;;4.20;3.90;;;13.60;99.90;;;;;;5034185;28;20224;-67
2021/10/06 04:26:48;;;;;;;5.30;4.80;;;13.60;99.90;;;;;;5034234;28;20411;-67
2021/10/06 04:29:14;;;;;;;3.50;2.73;;;13.60;99.90;;;;;;5048791;28;20181;-67
2021/10/06 04:31:39;;;;;;;3.77;3.00;;;13.60;99.90;;;;;;5053851;28;20720;-67
2021/10/06 04:34:06;;;;;;;4.70;4.43;;;13.70;99.90;;;;;;5052948;28;20220;-67
2021/10/06 04:36:32;;;;;;;3.07;2.77;;;13.70;99.90;;;;;;5054107;28;20188;-67
2021/10/06 04:38:58;;;;;;;4.80;4.43;;;13.60;99.90;;;;;;5054056;28;20404;-67
2021/10/06 04:41:24;;;;;;;5.37;4.97;;;13.70;99.90;;;;;;5036979;28;20454;-67
2021/10/06 04:43:49;;;;;;;3.93;3.57;;;13.60;99.90;;;;;;5033904;28;20197;-67
2021/10/06 04:46:18;;;;;;;3.87;3.30;;;13.50;99.90;;;;;;5033214;28;20402;-67
2021/10/06 04:48:47;;;;;;;3.97;3.50;;;13.50;99.90;;;;;;5016093;28;20403;-67
2021/10/06 04:51:14;;;;;;;5.40;3.70;;;13.50;99.90;;;;;;5032516;28;20446;-67
2021/10/06 04:53:40;;;;;;;4.90;3.27;;;13.50;99.90;;;;;;5033491;28;20440;-67
2021/10/06 04:56:06;;;;;;;5.30;4.90;;;13.50;99.90;;;;;;5032698;28;20418;-67
2021/10/06 04:58:31;;;;;;;4.63;3.10;;;13.50;99.90;;;;;;5033762;28;20631;-67
2021/10/06 05:00:57;;;;;;;5.60;3.23;;;13.50;99.90;;;;;;5033481;28;20483;-67
2021/10/06 05:03:23;;;;;;;4.73;4.33;;;13.50;99.90;;;;;;5032977;28;20179;-67
2021/10/06 05:05:48;;;;;;;3.80;3.30;;;13.60;99.90;;;;;;5053076;28;20253;-67
2021/10/06 05:08:14;;;;;;;4.00;3.70;;;13.60;99.90;;;;;;5052755;28;20692;-67
2021/10/06 05:10:40;;;;;;;5.07;2.80;;;13.60;99.90;;;;;;5053328;28;20204;-67
2021/10/06 05:13:06;;;;;;;5.07;2.30;;;13.50;99.90;;;;;;5052054;28;20234;-67
2021/10/06 05:15:32;;;;;;;8.30;2.40;;;13.60;99.90;;;;;;5052238;28;20423;-67
2021/10/06 05:17:58;;;;;;;4.70;3.17;;;13.60;99.90;;;;;;5052254;28;20181;-67
2021/10/06 05:20:23;;;;;;;4.00;3.80;;;13.60;99.90;;;;;;5052170;28;20187;-67
2021/10/06 05:22:49;;;;;;;4.50;4.10;;;13.60;99.90;;;;;;5052954;28;20454;-67
2021/10/06 05:25:15;;;;;;;5.43;5.10;;;13.60;99.90;;;;;;5035027;28;20192;-67
2021/10/06 05:27:41;;;;;;;6.50;4.00;;;13.60;99.90;;;;;;5033050;28;20209;-67
2021/10/06 05:30:08;;;;;;;3.77;2.60;;;13.60;99.90;;;;;;5031792;28;20611;-71
2021/10/06 05:32:35;;;;;;;4.10;2.47;;;13.60;99.90;;;;;;5032598;28;20212;-67
2021/10/06 05:35:01;;;;;;;2.87;2.60;;;13.70;99.90;;;;;;5042646;28;20547;-67
2021/10/06 05:37:27;;;;;;;4.27;3.10;;;13.70;99.90;;;;;;5051755;28;20446;-67
2021/10/06 05:39:53;;;;;;;3.00;2.70;;;13.80;99.90;;;;;;5049284;28;20740;-67
2021/10/06 05:42:19;;;;;;;4.60;4.00;;;13.90;99.90;;;;;;5043941;28;20450;-67
2021/10/06 05:44:45;;;;;;;5.17;4.87;;;14.00;99.90;;;;;;5052299;28;20820;-67
2021/10/06 05:47:10;;;;;;;6.93;3.70;;;14.00;99.90;;;;;;5044506;28;20439;-67
2021/10/06 05:49:36;;;;;;;3.40;2.77;;;14.00;99.90;;;;;;5032975;28;20260;-67
2021/10/06 05:52:02;;;;;;;3.50;3.20;;;14.00;99.90;;;;;;5034718;28;20174;-67
2021/10/06 05:54:28;;;;;;;4.97;3.83;;;13.90;99.90;;;;;;5050967;28;20638;-67
2021/10/06 05:56:53;;;;;;;3.70;3.40;;;13.90;99.90;;;;;;5051426;28;20499;-67
2021/10/06 05:59:19;;;;;;;4.23;3.83;;;13.80;99.90;;;;;;5048036;28;20182;-67
2021/10/06 06:01:45;;;;;;;4.00;3.80;;;13.90;99.90;;;;;;5040843;28;20682;-67
2021/10/06 06:04:10;;;;;;;6.20;5.80;;;13.70;99.90;;;;;;5051368;28;20194;-67
2021/10/06 06:06:41;;;;;;;2.57;2.00;;;13.70;99.90;;;;;;5052587;28;20176;-67
2021/10/06 06:09:08;;;;;;;5.10;4.80;;;13.70;99.90;;;;;;5051810;28;20203;-67
2021/10/06 06:11:34;;;;;;;3.40;2.80;;;13.70;99.90;;;;;;5052512;28;20910;-67
2021/10/06 06:14:00;;;;;;;6.97;6.57;;;13.70;99.90;;;;;;5043608;28;20435;-67
2021/10/06 06:16:26;;;;;;;4.67;4.27;;;13.80;99.90;;;;;;5048233;28;20414;-67
2021/10/06 06:18:51;;;;;;;4.10;3.80;;;13.90;99.90;;;;;;5045670;28;20222;-68
2021/10/06 06:21:17;;;;;;;5.80;3.57;;;13.90;99.90;;;;;;5041710;28;20526;-67
2021/10/06 06:23:43;;;;;;;4.53;4.23;;;13.90;99.90;;;;;;5042341;28;20185;-67
2021/10/06 06:26:09;;;;;;;4.10;3.70;;;14.00;99.90;;;;;;5031187;28;20196;-67
2021/10/06 06:28:38;;;;;;;5.70;4.27;;;13.80;99.90;;;;;;5033553;28;20421;-67
2021/10/06 06:31:04;;;;;;;2.73;2.30;;;13.80;99.90;;;;;;5036352;28;20408;-67
2021/10/06 06:33:31;;;;;;;5.50;5.10;;;13.80;99.90;;;;;;5036145;28;20400;-67
2021/10/06 06:35:56;;;;;;;4.17;3.87;;;13.90;99.90;;;;;;5044519;28;20501;-67
2021/10/06 06:38:22;;;;;;;6.00;5.47;;;13.90;99.90;;;;;;5054038;28;20434;-67
2021/10/06 06:40:48;;;;;;;4.60;4.20;;;13.90;99.90;;;;;;5055928;28;20274;-67
2021/10/06 06:43:13;;;;;;;3.43;3.23;;;13.90;99.90;;;;;;5055022;28;20198;-67
2021/10/06 06:45:39;;;;;;;3.20;3.00;;;13.80;99.90;;;;;;5056115;28;20253;-67
2021/10/06 06:48:06;;;;;;;3.57;3.20;;;13.80;99.90;;;;;;5037516;28;20176;-67
2021/10/06 06:50:32;;;;;;;3.53;2.87;;;13.70;99.90;;;;;;5055812;28;20409;-67
2021/10/06 06:52:57;;;;;;;2.97;2.70;;;13.70;99.90;;;;;;5036896;28;20407;-67
2021/10/06 06:55:23;;;;;;;3.30;3.00;;;13.70;99.90;;;;;;5035208;28;20457;-67
2021/10/06 06:57:49;;;;;;;4.90;3.17;;;13.70;99.90;;;;;;5036025;28;20601;-67
2021/10/06 07:00:15;;;;;;;3.23;3.13;;;13.60;99.90;;;;;;5035504;28;20506;-67
2021/10/06 07:02:41;;;;;;;5.87;5.43;;;13.70;99.90;;;;;;5035783;28;20271;-67
2021/10/06 07:05:07;;;;;;;6.10;4.00;;;13.70;99.90;;;;;;5036337;28;20416;-67
2021/10/06 07:07:33;;;;;;;6.00;5.70;;;13.80;99.90;;;;;;5055670;28;20524;-67
2021/10/06 07:09:59;;;;;;;4.20;2.50;;;13.80;99.90;;;;;;5055325;28;20418;-67
2021/10/06 07:12:25;;;;;;;6.20;5.80;;;13.90;99.90;;;;;;5054982;28;20173;-67
2021/10/06 07:14:51;;;;;;;3.73;3.50;;;13.90;99.90;;;;;;5037761;28;20461;-67
2021/10/06 07:17:18;;;;;;;6.23;2.83;;;14.00;99.90;;;;;;5055134;28;20529;-67
2021/10/06 07:19:46;;;;;;;5.33;4.83;;;13.90;99.90;;;;;;5037628;28;20820;-69
2021/10/06 07:22:12;;;;;;;4.57;4.37;;;13.80;99.90;;;;;;5054446;28;20504;-70
2021/10/06 07:24:39;;;;;;;2.83;2.63;;;14.00;99.90;;;;;;5054781;28;20423;-69
2021/10/06 07:27:04;;;;;;;5.10;4.90;;;14.20;99.90;;;;;;5054919;28;20403;-69
2021/10/06 07:29:30;;;;;;;3.67;3.47;;;14.50;99.90;;;;;;5054581;28;20400;-69
2021/10/06 07:31:56;;;;;;;6.20;4.00;;;14.70;99.90;;;;;;5037967;28;20424;-69
2021/10/06 07:34:22;;;;;;;3.10;2.80;;;14.80;99.90;;;;;;5034303;28;20489;-68
2021/10/06 07:36:48;;;;;;;5.03;4.80;;;14.80;99.90;;;;;;5035164;28;20425;-68
2021/10/06 07:39:13;;;;;;;3.60;3.40;;;14.80;99.90;;;;;;5034363;28;20193;-68
2021/10/06 07:41:39;;;;;;;5.30;4.90;;;14.80;99.90;;;;;;5034144;28;20245;-68
2021/10/06 07:44:05;;;;;;;6.20;5.87;;;14.80;99.90;;;;;;5035043;28;20175;-68
2021/10/06 07:46:31;;;;;;;6.47;3.80;;;14.80;99.90;;;;;;5046877;28;20709;-68
2021/10/06 07:48:57;;;;;;;4.43;4.03;;;14.80;99.90;;;;;;5054532;28;20200;-68
2021/10/06 07:51:22;;;;;;;4.37;3.97;;;14.90;99.90;;;;;;5054250;28;20413;-68
2021/10/06 07:53:49;;;;;;;4.37;4.10;;;14.80;99.90;;;;;;5054494;28;20213;-68
2021/10/06 07:56:15;;;;;;;3.43;3.13;;;14.80;99.90;;;;;;5054121;28;20189;-68
2021/10/06 07:58:41;;;;;;;3.80;3.50;;;14.80;99.90;;;;;;5054246;28;20912;-68
2021/10/06 08:01:08;;;;;;;3.60;3.30;;;14.90;99.90;;;;;;5035565;28;20423;-68
2021/10/06 08:03:33;;;;;;;5.03;4.53;;;14.90;99.90;;;;;;5053993;28;20512;-68
2021/10/06 08:05:59;;;;;;;4.83;4.53;;;14.90;99.90;;;;;;5054915;28;20547;-68
2021/10/06 08:08:26;;;;;;;3.90;3.70;;;15.00;99.90;;;;;;5053814;28;20186;-68
2021/10/06 08:10:57;;;;;;;4.90;4.27;;;15.00;99.90;;;;;;5054069;28;20533;-68
2021/10/06 08:13:23;;;;;;;3.80;3.60;;;15.10;99.90;;;;;;5046417;28;20414;-67
2021/10/06 08:15:51;;;;;;;4.20;4.00;;;15.10;99.90;;;;;;5045178;28;20923;-67
2021/10/06 08:18:19;;;;;;;4.47;4.07;;;15.00;99.90;;;;;;5052485;28;20770;-69
2021/10/06 08:20:47;;;;;;;4.80;4.50;;;15.00;99.90;;;;;;5053424;28;20420;-68
2021/10/06 08:23:15;;;;;;;4.37;4.00;;;15.10;99.90;;;;;;5049916;28;20462;-75
2021/10/06 08:25:40;;;;;;;4.20;3.93;;;15.00;99.90;;;;;;5033653;28;20429;-68
2021/10/06 08:28:06;;;;;;;4.30;4.00;;;15.10;99.90;;;;;;5033893;28;20410;-68
2021/10/06 08:30:32;;;;;;;4.83;4.47;;;15.10;99.90;;;;;;5032936;28;20197;-68
2021/10/06 08:32:58;;;;;;;4.30;4.00;;;15.20;99.90;;;;;;5022665;28;20181;-68
2021/10/06 08:35:23;;;;;;;3.97;3.73;;;15.00;99.90;;;;;;5044828;28;20260;-68
2021/10/06 08:37:49;;;;;;;5.70;4.97;;;14.90;99.90;;;;;;5053572;28;20480;-68
2021/10/06 08:40:15;;;;;;;4.50;4.20;;;14.90;99.90;;;;;;5052871;28;20185;-76
2021/10/06 08:42:42;;;;;;;4.73;4.20;;;14.70;99.90;;;;;;5053552;28;20270;-68
2021/10/06 08:45:09;;;;;;;4.00;3.50;;;14.70;99.90;;;;;;5053406;28;20236;-68
2021/10/06 08:47:39;;;;;;;3.67;3.20;;;14.70;99.90;;;;;;5034813;28;20453;-68
2021/10/06 08:50:07;;;;;;;3.53;2.67;;;14.80;99.90;;;;;;5053533;28;20408;-68
2021/10/06 08:52:33;;;;;;;5.43;2.90;;;14.80;99.90;;;;;;5048073;28;20420;-68
2021/10/06 08:55:01;;;;;;;4.37;3.60;;;14.80;99.90;;;;;;5015808;28;20915;-68
2021/10/06 08:57:28;;;;;;;4.13;3.70;;;14.80;99.90;;;;;;5035230;28;20794;-68
2021/10/06 08:59:54;;;;;;;4.97;4.53;;;14.70;99.90;;;;;;5032934;28;20439;-68
2021/10/06 09:02:20;;;;;;;4.10;3.90;;;14.90;99.90;;;;;;5039690;28;20465;-68
2021/10/06 09:04:48;;;;;;;3.60;3.10;;;14.90;99.90;;;;;;5053109;28;20240;-68
2021/10/06 09:07:14;;;;;;;7.00;4.70;;;14.90;99.90;;;;;;5052502;28;20428;-71
2021/10/06 09:09:40;;;;;;;3.73;3.43;;;15.00;99.90;;;;;;5052608;28;20432;-68
2021/10/06 09:12:17;;;;;;;3.60;3.40;;;15.00;99.90;;;;;;5035084;28;20417;-68
2021/10/06 09:14:45;;;;;;;3.37;3.07;;;15.00;99.90;;;;;;5052720;28;20395;-68
2021/10/06 09:17:15;;;;;;;3.30;3.10;;;14.80;99.90;;;;;;5052843;28;20788;-68
2021/10/06 09:19:46;;;;;;;3.73;3.53;;;14.80;99.90;;;;;;5052019;28;20416;-68
2021/10/06 09:22:24;;;;;;;3.77;3.30;;;14.80;99.90;;;;;;5052685;28;20506;-68
2021/10/06 09:24:57;;;;;;;3.67;3.37;;;14.80;99.90;;;;;;5052621;28;20423;-68
2021/10/06 09:27:29;;;;;;;5.13;3.37;;;14.80;99.90;;;;;;5050100;28;20413;-69
2021/10/06 09:29:58;;;;;;;3.57;3.33;;;14.70;99.90;;;;;;5052721;28;20475;-68
2021/10/06 09:32:37;;;;;;;2.87;2.67;;;14.80;99.90;;;;;;5051835;28;20413;-65
2021/10/06 09:35:11;;;;;;;3.23;2.83;;;14.80;99.90;;;;;;5051690;28;20491;-66
2021/10/06 09:37:39;;;;;;;5.00;2.90;;;14.70;99.90;;;;;;5051047;28;20498;-66
2021/10/06 09:40:08;;;;;;;3.40;3.20;;;14.50;99.90;;;;;;5052580;28;20429;-66
2021/10/06 09:42:48;;;;;;;3.03;2.70;;;14.40;99.90;;;;;;5051567;28;20520;-66
2021/10/06 09:45:32;;;;;;;3.27;3.07;;;14.30;99.90;;;;;;5052362;28;20443;-66
2021/10/06 09:48:15;;;;;;;4.27;2.67;;;14.10;99.90;;;;;;5052985;28;20385;-66
2021/10/06 09:50:46;;;;;;;3.53;2.93;;;14.10;99.90;;;;;;5042716;28;20524;-66
2021/10/06 09:53:23;;;;;;;2.87;2.63;;;14.20;99.90;;;;;;5032862;28;20389;-65
2021/10/06 09:55:50;;;;;;;2.30;2.20;;;14.10;99.90;;;;;;5033092;28;20405;-65
2021/10/06 09:58:18;;;;;;;3.83;3.53;;;14.20;99.90;;;;;;5032325;28;20474;-66
2021/10/06 10:00:47;;;;;;;3.10;2.87;;;14.20;99.90;;;;;;5032638;28;20415;-65
2021/10/06 10:03:13;;;;;;;4.07;3.07;;;14.20;99.90;;;;;;5031978;28;20448;-65
2021/10/06 10:05:40;;;;;;;3.67;3.37;;;14.10;99.90;;;;;;5032170;28;20431;-65
2021/10/06 10:08:08;;;;;;;3.63;2.90;;;14.10;99.90;;;;;;5032570;28;20424;-65
2021/10/06 10:10:36;;;;;;;3.93;2.97;;;14.10;99.90;;;;;;5014341;28;20504;-66
2021/10/06 10:13:03;;;;;;;3.30;3.00;;;14.10;99.90;;;;;;5032560;28;20828;-66
2021/10/06 10:15:29;;;;;;;2.87;2.67;;;14.20;99.90;;;;;;5031927;28;20505;-65
2021/10/06 10:17:59;;;;;;;3.70;3.50;;;14.40;99.90;;;;;;5032481;28;20867;-65
2021/10/06 10:20:28;;;;;;;3.73;3.43;;;14.50;99.90;;;;;;5031563;28;20417;-66
2021/10/06 10:22:59;;;;;;;3.10;2.90;;;14.40;99.90;;;;;;5032411;28;20472;-65
2021/10/06 10:25:28;;;;;;;5.23;3.57;;;14.50;99.90;;;;;;5031866;28;20448;-66
2021/10/06 10:28:02;;;;;;;3.70;3.50;;;14.50;99.90;;;;;;5032359;28;20492;-65
2021/10/06 10:30:33;;;;;;;3.73;3.43;;;14.30;99.90;;;;;;5031787;28;20444;-65
2021/10/06 10:32:59;;;;;;;3.77;3.47;;;14.20;99.90;;;;;;5032336;28;20764;-65
2021/10/06 10:35:40;;;;;;;4.53;3.73;;;14.20;99.90;;;;;;5031750;28;20475;-66
2021/10/06 10:38:11;;;;;;;3.47;3.27;;;14.30;99.90;;;;;;5032213;28;20738;-65
2021/10/06 10:40:45;;;;;;;3.40;3.10;;;14.50;99.90;;;;;;5031731;28;20750;-66
2021/10/06 10:43:21;;;;;;;4.50;4.10;;;14.40;99.90;;;;;;5032193;28;20800;-66
2021/10/06 10:46:00;;;;;;;4.97;3.20;;;14.60;99.90;;;;;;5014586;28;20486;-65
2021/10/06 10:48:31;;;;;;;3.17;2.97;;;14.60;99.90;;;;;;5031295;28;20414;-66
2021/10/06 10:50:57;;;;;;;3.87;3.53;;;14.60;99.90;;;;;;5031753;28;20442;-65
2021/10/06 10:53:50;;;;;;;3.60;3.40;;;14.60;99.90;;;;;;5031160;28;20412;-66
2021/10/06 10:56:37;;;;;;;3.43;3.10;;;14.60;99.90;;;;;;5032102;28;20178;-65
2021/10/06 10:59:07;;;;;;;2.50;2.33;;;14.50;99.90;;;;;;5032132;28;20412;-65
2021/10/06 11:01:57;;;;;;;3.60;3.10;;;14.50;99.90;;;;;;5031410;28;20559;-66
2021/10/06 11:04:29;;;;;;;2.97;2.87;;;14.40;99.90;;;;;;5030986;28;20432;-66
2021/10/06 11:07:11;;;;;;;2.40;2.20;;;14.40;99.90;;;;;;5031697;28;20452;-65
2021/10/06 11:09:42;;;;;;;2.80;2.70;;;14.30;99.90;;;;;;5030618;28;20438;-65
2021/10/06 11:12:08;;;;;;;2.93;2.77;;;14.40;99.90;;;;;;5014142;28;20468;-65
2021/10/06 11:14:40;;;;;;;3.30;3.03;;;14.30;99.90;;;;;;5032470;28;20436;-65
2021/10/06 11:17:11;;;;;;;3.10;2.90;;;14.20;99.90;;;;;;5047705;28;20265;-67
2021/10/06 11:19:41;;;;;;;2.80;2.70;;;14.20;99.90;;;;;;5052874;28;20433;-67
2021/10/06 11:22:22;;;;;;;2.33;2.23;;;14.10;99.90;;;;;;5035514;28;20443;-65
2021/10/06 11:24:49;;;;;;;3.07;2.87;;;14.10;99.90;;;;;;5037170;28;20416;-67
2021/10/06 11:27:15;;;;;;;2.90;2.80;;;14.10;99.90;;;;;;5055078;28;20499;-67
2021/10/06 11:29:49;;;;;;;3.00;2.80;;;14.10;99.90;;;;;;5054046;28;20964;-67
2021/10/06 11:32:16;;;;;;;3.30;3.10;;;14.10;99.90;;;;;;5055116;28;20408;-67
2021/10/06 11:34:49;;;;;;;2.60;2.50;;;13.90;99.90;;;;;;5054370;28;20550;-67
2021/10/06 11:37:20;;;;;;;2.93;2.80;;;14.00;99.90;;;;;;5036969;28;20964;-70
2021/10/06 11:39:47;;;;;;;3.80;3.07;;;14.00;99.90;;;;;;5051846;28;20434;-67
2021/10/06 11:42:14;;;;;;;2.93;2.83;;;14.00;99.90;;;;;;5054583;28;20812;-65
2021/10/06 11:44:41;;;;;;;3.10;2.90;;;14.00;99.90;;;;;;5054411;28;20747;-65
2021/10/06 11:47:12;;;;;;;3.30;3.17;;;13.90;99.90;;;;;;5020011;28;20506;-65
2021/10/06 11:49:40;;;;;;;3.10;3.00;;;14.00;99.90;;;;;;5053514;28;20447;-65
2021/10/06 11:52:13;;;;;;;3.40;3.30;;;13.90;99.90;;;;;;5054493;28;20481;-66
2021/10/06 11:54:39;;;;;;;3.93;3.83;;;14.00;99.90;;;;;;5054322;28;20411;-66
2021/10/06 11:57:08;;;;;;;3.37;3.27;;;13.90;99.90;;;;;;5053966;28;20420;-66
2021/10/06 11:59:35;;;;;;;2.80;2.70;;;13.80;99.90;;;;;;5034178;28;20407;-66
2021/10/06 12:02:10;;;;;;;3.70;3.60;;;13.90;99.90;;;;;;5034591;28;20454;-65
2021/10/06 12:04:39;;;;;;;3.40;3.20;;;13.90;99.90;;;;;;5034097;28;20411;-66
2021/10/06 12:07:06;;;;;;;3.10;3.00;;;13.90;99.90;;;;;;5034885;28;20435;-65
2021/10/06 12:09:40;;;;;;;3.10;3.00;;;13.80;99.90;;;;;;5034032;28;20435;-65
2021/10/06 12:12:19;;;;;;;4.13;3.90;;;13.70;99.90;;;;;;5034353;28;20424;-65
2021/10/06 12:14:49;;;;;;;3.03;2.93;;;13.70;99.90;;;;;;5033597;28;20478;-67
2021/10/06 12:17:21;;;;;;;4.23;3.93;;;13.80;99.90;;;;;;5053981;28;20419;-65
2021/10/06 12:20:16;;;;;;;3.70;3.50;;;13.90;99.90;;;;;;5053767;28;20867;-65
2021/10/06 12:22:44;;;;;;;4.20;3.67;;;14.00;99.90;;;;;;5053549;28;20556;-65
2021/10/06 12:25:16;;;;;;;4.73;3.53;;;13.90;99.90;;;;;;5036165;28;20450;-65
2021/10/06 12:27:51;;;;;;;4.13;3.93;;;14.10;99.90;;;;;;5052886;28;20438;-65
2021/10/06 12:30:21;;;;;;;3.30;3.20;;;14.10;99.90;;;;;;5036305;28;20410;-65
2021/10/06 12:32:50;;;;;;;4.00;3.80;;;14.20;99.90;;;;;;5053315;28;20419;-65
2021/10/06 12:35:22;;;;;;;4.80;4.40;;;14.20;99.90;;;;;;5053708;28;20467;-65
2021/10/06 12:38:01;;;;;;;4.83;4.43;;;14.10;99.90;;;;;;5051636;28;20773;-65
2021/10/06 12:40:53;;;;;;;4.13;3.83;;;14.10;99.90;;;;;;5053950;28;20410;-65
2021/10/06 12:43:27;;;;;;;5.10;4.80;;;14.20;99.90;;;;;;5053862;28;21022;-65
2021/10/06 12:46:11;;;;;;;5.00;4.60;;;14.30;99.90;;;;;;5035911;28;20418;-65
2021/10/06 12:48:46;;;;;;;3.97;3.77;;;14.30;99.90;;;;;;5052902;28;20801;-65
2021/10/06 12:51:28;;;;;;;4.10;3.90;;;14.30;99.90;;;;;;5053592;28;20844;-65